Time;durP1;ratioP1;P1;durP2;ratioP2;P2;SDS_P1;SDS_P2;PMS_P1;PMS_P2;Temp;Humidity;BMP_temperature;BMP_pressure;BME280_temperature;BME280_humidity;BME280_pressure;Samples;Min_cycle;Max_cycle;Signal;HPM_P1;HPM_P2
2023/02/10 00:01:19;;;;;;;20.03;13.33;;;;;;;;;;5056697;28;20032;-54
2023/02/10 00:03:46;;;;;;;23.23;13.10;;;;;;;;;;5057210;28;20021;-55
2023/02/10 00:06:13;;;;;;;15.73;13.07;;;;;;;;;;5056682;28;20032;-55
2023/02/10 00:08:39;;;;;;;14.83;13.33;;;;;;;;;;5056273;28;20463;-54
2023/02/10 00:11:07;;;;;;;20.03;14.30;;;;;;;;;;5056591;28;20085;-55
2023/02/10 00:13:33;;;;;;;27.17;12.13;;;;;;;;;;5056109;28;20021;-54
2023/02/10 00:15:59;;;;;;;15.50;12.27;;;;;;;;;;5056707;28;20037;-56
2023/02/10 00:18:27;;;;;;;16.73;12.30;;;;;;;;;;5056153;28;20060;-55
2023/02/10 00:20:53;;;;;;;15.13;13.13;;;;;;;;;;5056618;28;20452;-55
2023/02/10 00:23:19;;;;;;;16.20;13.33;;;;;;;;;;5056022;28;20025;-55
2023/02/10 00:25:45;;;;;;;27.67;15.30;;;;;;;;;;5056219;28;20036;-51
2023/02/10 00:28:11;;;;;;;15.87;14.23;;;;;;;;;;5056020;28;20054;-56
2023/02/10 00:30:38;;;;;;;24.33;12.93;;;;;;;;;;5056390;28;20029;-55
2023/02/10 00:33:04;;;;;;;21.93;14.03;;;;;;;;;;5055891;28;20028;-53
2023/02/10 00:35:30;;;;;;;18.73;12.93;;;;;;;;;;5056107;28;20178;-55
2023/02/10 00:37:56;;;;;;;21.57;15.73;;;;;;;;;;5055740;28;20029;-51
2023/02/10 00:40:22;;;;;;;17.97;13.43;;;;;;;;;;5055826;28;20083;-55
2023/02/10 00:42:48;;;;;;;22.57;14.50;;;;;;;;;;5054728;28;20079;-53
2023/02/10 00:45:14;;;;;;;18.07;14.17;;;;;;;;;;5056057;28;20028;-55
2023/02/10 00:47:40;;;;;;;14.70;11.23;;;;;;;;;;5055568;28;20052;-55
2023/02/10 00:50:06;;;;;;;19.10;14.73;;;;;;;;;;5055546;28;20051;-53
2023/02/10 00:52:32;;;;;;;19.83;13.17;;;;;;;;;;5055552;28;20032;-54
2023/02/10 00:54:58;;;;;;;18.07;14.57;;;;;;;;;;5055750;28;20356;-54
2023/02/10 00:57:24;;;;;;;15.23;12.87;;;;;;;;;;5056022;28;20032;-50
2023/02/10 00:59:50;;;;;;;23.67;17.17;;;;;;;;;;5055891;28;20036;-55
2023/02/10 01:02:16;;;;;;;20.90;15.40;;;;;;;;;;5055272;28;20093;-55
2023/02/10 01:04:42;;;;;;;16.83;12.73;;;;;;;;;;5055740;28;20052;-52
2023/02/10 01:07:08;;;;;;;13.70;11.63;;;;;;;;;;5055270;28;20430;-54
2023/02/10 01:09:34;;;;;;;18.87;14.57;;;;;;;;;;5055718;28;20021;-54
2023/02/10 01:12:00;;;;;;;16.80;11.77;;;;;;;;;;5055233;28;20467;-52
2023/02/10 01:14:26;;;;;;;17.90;12.27;;;;;;;;;;5055027;28;20352;-51
2023/02/10 01:16:52;;;;;;;18.73;16.00;;;;;;;;;;5055559;28;20021;-54
2023/02/10 01:19:18;;;;;;;15.33;13.70;;;;;;;;;;5055812;28;20028;-53
2023/02/10 01:21:44;;;;;;;31.30;14.97;;;;;;;;;;5054955;28;20033;-54
2023/02/10 01:24:10;;;;;;;21.23;14.63;;;;;;;;;;5054960;28;20025;-51
2023/02/10 01:26:36;;;;;;;18.03;12.53;;;;;;;;;;5054895;28;20036;-56
2023/02/10 01:29:02;;;;;;;14.57;12.07;;;;;;;;;;5055399;28;20033;-52
2023/02/10 01:31:28;;;;;;;16.73;14.93;;;;;;;;;;5055529;28;20036;-49
2023/02/10 01:33:55;;;;;;;19.50;13.60;;;;;;;;;;5054731;28;20021;-52
2023/02/10 01:36:22;;;;;;;19.83;15.23;;;;;;;;;;5055317;28;20051;-52
2023/02/10 01:38:48;;;;;;;18.97;13.80;;;;;;;;;;5054630;28;20029;-54
2023/02/10 01:41:15;;;;;;;12.70;11.40;;;;;;;;;;5054619;28;20463;-51
2023/02/10 01:43:58;;;;;;;16.17;13.03;;;;;;;;;;5054284;28;20540;-54
2023/02/10 01:46:24;;;;;;;19.73;13.50;;;;;;;;;;5055215;28;20033;-55
2023/02/10 01:48:51;;;;;;;22.03;13.87;;;;;;;;;;5054704;28;20352;-52
2023/02/10 01:51:18;;;;;;;17.60;13.57;;;;;;;;;;5055268;28;20463;-55
2023/02/10 01:53:44;;;;;;;15.63;12.23;;;;;;;;;;5053680;28;20021;-52
2023/02/10 01:56:10;;;;;;;23.27;12.47;;;;;;;;;;5054933;28;20037;-52
2023/02/10 01:58:37;;;;;;;19.67;12.30;;;;;;;;;;5054320;28;20064;-54
2023/02/10 02:01:03;;;;;;;21.43;14.83;;;;;;;;;;5054847;28;20367;-52
2023/02/10 02:03:29;;;;;;;25.00;15.33;;;;;;;;;;5054573;28;20047;-54
2023/02/10 02:05:55;;;;;;;20.87;13.03;;;;;;;;;;5054079;28;20482;-53
2023/02/10 02:08:26;;;;;;;17.60;13.80;;;;;;;;;;5054674;28;20112;-54
2023/02/10 02:11:04;;;;;;;16.52;12.93;;;;;;;;;;5054679;28;20469;-52
2023/02/10 02:13:33;;;;;;;23.13;15.40;;;;;;;;;;5054284;28;20021;-54
2023/02/10 02:16:08;;;;;;;20.87;14.37;;;;;;;;;;5053676;28;20471;-52
2023/02/10 02:18:43;;;;;;;15.67;14.00;;;;;;;;;;5053969;28;20083;-54
2023/02/10 02:21:17;;;;;;;17.83;12.33;;;;;;;;;;5054268;28;20377;-52
2023/02/10 02:23:43;;;;;;;22.13;14.33;;;;;;;;;;5054188;28;20025;-54
2023/02/10 02:26:12;;;;;;;14.50;13.00;;;;;;;;;;5054118;28;20029;-54
2023/02/10 02:28:57;;;;;;;14.90;13.03;;;;;;;;;;5053802;28;20025;-56
2023/02/10 02:31:41;;;;;;;18.90;14.57;;;;;;;;;;5053805;28;20079;-56
2023/02/10 02:34:26;;;;;;;15.93;13.93;;;;;;;;;;5053475;28;20082;-56
2023/02/10 02:36:58;;;;;;;19.13;12.50;;;;;;;;;;5054070;28;20366;-56
2023/02/10 02:39:24;;;;;;;22.90;12.87;;;;;;;;;;5053730;28;20032;-53
2023/02/10 02:42:19;;;;;;;14.37;11.73;;;;;;;;;;5053901;28;20025;-52
2023/02/10 02:44:47;;;;;;;21.57;11.73;;;;;;;;;;5048656;28;20037;-52
2023/02/10 02:47:14;;;;;;;20.83;12.30;;;;;;;;;;5054155;28;20029;-52
2023/02/10 02:49:48;;;;;;;17.40;12.77;;;;;;;;;;5054088;28;20033;-50
2023/02/10 02:52:27;;;;;;;17.60;12.30;;;;;;;;;;5053959;28;20036;-54
2023/02/10 02:54:56;;;;;;;20.60;13.47;;;;;;;;;;5054206;28;20029;-52
2023/02/10 02:57:34;;;;;;;15.73;11.17;;;;;;;;;;5053218;28;20538;-53
2023/02/10 03:00:10;;;;;;;16.23;12.33;;;;;;;;;;5053785;28;20478;-54
2023/02/10 03:02:37;;;;;;;14.83;11.93;;;;;;;;;;5053704;28;20080;-52
2023/02/10 03:05:03;;;;;;;18.37;12.97;;;;;;;;;;5053750;28;20039;-51
2023/02/10 03:07:30;;;;;;;19.97;15.77;;;;;;;;;;5056663;28;20117;-55
2023/02/10 03:09:56;;;;;;;23.70;12.83;;;;;;;;;;5057485;28;20423;-53
2023/02/10 03:12:22;;;;;;;17.67;14.50;;;;;;;;;;5057365;28;20447;-52
2023/02/10 03:14:48;;;;;;;13.13;11.60;;;;;;;;;;5057239;28;20021;-51
2023/02/10 03:17:14;;;;;;;16.03;11.53;;;;;;;;;;5057109;28;20032;-53
2023/02/10 03:19:40;;;;;;;16.10;14.40;;;;;;;;;;5057845;28;20458;-54
2023/02/10 03:22:06;;;;;;;18.27;12.53;;;;;;;;;;5057805;28;20025;-54
2023/02/10 03:24:32;;;;;;;21.60;13.90;;;;;;;;;;5057873;28;20112;-54
2023/02/10 03:26:58;;;;;;;20.60;13.47;;;;;;;;;;5057173;28;20079;-56
2023/02/10 03:29:24;;;;;;;18.80;13.07;;;;;;;;;;5057153;28;20029;-52
2023/02/10 03:31:50;;;;;;;16.40;12.97;;;;;;;;;;5057257;28;20021;-56
2023/02/10 03:34:16;;;;;;;17.37;10.60;;;;;;;;;;5057087;28;20032;-55
2023/02/10 03:36:42;;;;;;;17.27;14.80;;;;;;;;;;5057543;28;20029;-53
2023/02/10 03:39:08;;;;;;;14.77;11.60;;;;;;;;;;5057229;28;20099;-54
2023/02/10 03:41:34;;;;;;;26.90;14.43;;;;;;;;;;5056901;28;20029;-55
2023/02/10 03:44:00;;;;;;;12.77;11.47;;;;;;;;;;5057096;28;20033;-55
2023/02/10 03:46:26;;;;;;;25.10;16.87;;;;;;;;;;5056793;28;20033;-57
2023/02/10 03:48:52;;;;;;;17.33;15.53;;;;;;;;;;5057307;28;20033;-54
2023/02/10 03:51:18;;;;;;;20.70;18.17;;;;;;;;;;5056456;28;20511;-54
2023/02/10 03:53:44;;;;;;;18.73;12.90;;;;;;;;;;5057007;28;20303;-56
2023/02/10 03:56:10;;;;;;;25.47;16.33;;;;;;;;;;5056995;28;20082;-53
2023/02/10 03:58:36;;;;;;;15.87;12.30;;;;;;;;;;5056261;28;20029;-53
2023/02/10 04:01:08;;;;;;;17.47;11.33;;;;;;;;;;5056472;28;20371;-54
2023/02/10 04:03:34;;;;;;;18.37;13.87;;;;;;;;;;5056489;28;20090;-55
2023/02/10 04:06:00;;;;;;;21.50;17.30;;;;;;;;;;5056548;28;20025;-54
2023/02/10 04:08:26;;;;;;;19.60;14.33;;;;;;;;;;5056667;28;20028;-55
2023/02/10 04:10:52;;;;;;;18.50;14.43;;;;;;;;;;5056137;28;20070;-53
2023/02/10 04:13:19;;;;;;;17.70;13.63;;;;;;;;;;5056536;28;20447;-56
2023/02/10 04:15:45;;;;;;;16.50;12.40;;;;;;;;;;5056455;28;20032;-55
2023/02/10 04:18:11;;;;;;;13.63;11.93;;;;;;;;;;5055690;28;20482;-54
2023/02/10 04:20:37;;;;;;;19.83;14.17;;;;;;;;;;5056631;28;20340;-54
2023/02/10 04:23:03;;;;;;;19.30;12.60;;;;;;;;;;5056656;28;20071;-56
2023/02/10 04:25:29;;;;;;;17.77;13.37;;;;;;;;;;5056068;28;20068;-55
2023/02/10 04:27:55;;;;;;;16.90;12.90;;;;;;;;;;5055787;28;20061;-54
2023/02/10 04:30:21;;;;;;;14.37;12.87;;;;;;;;;;5056456;28;20025;-55
2023/02/10 04:32:47;;;;;;;17.97;13.53;;;;;;;;;;5055809;28;20040;-54
2023/02/10 04:35:13;;;;;;;14.03;10.47;;;;;;;;;;5056082;28;20029;-54
2023/02/10 04:37:39;;;;;;;20.17;16.50;;;;;;;;;;5055678;28;20036;-53
2023/02/10 04:40:05;;;;;;;18.37;10.97;;;;;;;;;;5055617;28;20477;-53
2023/02/10 04:42:31;;;;;;;13.30;12.00;;;;;;;;;;5055538;28;20025;-53
2023/02/10 04:44:58;;;;;;;13.17;11.47;;;;;;;;;;5055433;28;20048;-55
2023/02/10 04:47:25;;;;;;;20.37;14.83;;;;;;;;;;5055464;28;20029;-53
2023/02/10 04:49:51;;;;;;;17.87;12.93;;;;;;;;;;5055770;28;20383;-54
2023/02/10 04:52:17;;;;;;;15.57;13.47;;;;;;;;;;5055723;28;20087;-55
2023/02/10 04:54:43;;;;;;;21.80;14.80;;;;;;;;;;5056233;28;20156;-54
2023/02/10 04:57:09;;;;;;;16.60;11.90;;;;;;;;;;5055231;28;20459;-55
2023/02/10 04:59:35;;;;;;;13.73;12.20;;;;;;;;;;5055273;28;20075;-54
2023/02/10 05:02:02;;;;;;;21.17;12.60;;;;;;;;;;5055329;28;20053;-55
2023/02/10 05:04:28;;;;;;;20.47;12.83;;;;;;;;;;5055139;28;20062;-52
2023/02/10 05:06:57;;;;;;;16.70;14.73;;;;;;;;;;5055617;28;20037;-51
2023/02/10 05:09:23;;;;;;;12.77;11.33;;;;;;;;;;5055030;28;20033;-56
2023/02/10 05:11:50;;;;;;;11.03;9.83;;;;;;;;;;5055077;28;20025;-53
2023/02/10 05:14:15;;;;;;;19.07;13.03;;;;;;;;;;5055740;28;20336;-55
2023/02/10 05:16:41;;;;;;;16.17;12.70;;;;;;;;;;5055790;28;20025;-55
2023/02/10 05:19:09;;;;;;;16.70;12.57;;;;;;;;;;5054901;28;20032;-53
2023/02/10 05:21:35;;;;;;;14.97;12.23;;;;;;;;;;5054819;28;20060;-54
2023/02/10 05:24:01;;;;;;;22.37;13.23;;;;;;;;;;5055099;28;20025;-55
2023/02/10 05:26:27;;;;;;;15.60;12.03;;;;;;;;;;5054994;28;20029;-55
2023/02/10 05:28:53;;;;;;;17.53;12.20;;;;;;;;;;5054065;28;20029;-50
2023/02/10 05:31:19;;;;;;;16.63;10.87;;;;;;;;;;5054429;28;20078;-53
2023/02/10 05:33:46;;;;;;;20.00;13.27;;;;;;;;;;5054842;28;20031;-50
2023/02/10 05:36:11;;;;;;;15.33;13.20;;;;;;;;;;5055429;28;20033;-52
2023/02/10 05:38:38;;;;;;;14.77;10.27;;;;;;;;;;5054701;28;20100;-53
2023/02/10 05:41:04;;;;;;;13.87;8.53;;;;;;;;;;5054604;28;20057;-55
2023/02/10 05:43:30;;;;;;;15.30;10.50;;;;;;;;;;5054432;28;20029;-50
2023/02/10 05:45:55;;;;;;;18.90;11.90;;;;;;;;;;5054492;28;20029;-52
2023/02/10 05:48:21;;;;;;;14.00;10.63;;;;;;;;;;5054548;28;20048;-53
2023/02/10 05:50:51;;;;;;;14.37;11.23;;;;;;;;;;5054231;28;20029;-53
2023/02/10 05:53:17;;;;;;;9.63;8.60;;;;;;;;;;5054107;28;20036;-53
2023/02/10 05:55:45;;;;;;;13.93;11.57;;;;;;;;;;5054784;28;20393;-52
2023/02/10 05:58:11;;;;;;;14.40;12.07;;;;;;;;;;5054446;28;20040;-49
2023/02/10 06:00:37;;;;;;;15.30;10.97;;;;;;;;;;5054054;28;20021;-55
2023/02/10 06:03:03;;;;;;;11.17;9.37;;;;;;;;;;5055103;28;20049;-54
2023/02/10 06:05:29;;;;;;;17.57;13.77;;;;;;;;;;5053893;28;20039;-54
2023/02/10 06:07:55;;;;;;;17.47;11.23;;;;;;;;;;5053920;28;20105;-53
2023/02/10 06:10:21;;;;;;;19.37;13.63;;;;;;;;;;5054627;28;20075;-53
2023/02/10 06:12:47;;;;;;;14.70;12.23;;;;;;;;;;5054024;28;20056;-52
2023/02/10 06:15:13;;;;;;;19.37;11.57;;;;;;;;;;5054439;28;20064;-52
2023/02/10 06:17:39;;;;;;;18.40;11.67;;;;;;;;;;5054484;28;20025;-54
2023/02/10 06:20:05;;;;;;;13.73;10.43;;;;;;;;;;5053994;28;20029;-53
2023/02/10 06:22:31;;;;;;;16.10;13.93;;;;;;;;;;5054719;28;20032;-53
2023/02/10 06:24:57;;;;;;;18.80;12.30;;;;;;;;;;5054070;28;20025;-53
2023/02/10 06:27:23;;;;;;;18.70;11.53;;;;;;;;;;5053873;28;20025;-53
2023/02/10 06:29:49;;;;;;;16.63;12.87;;;;;;;;;;5053924;28;20470;-53
2023/02/10 06:32:15;;;;;;;14.53;11.53;;;;;;;;;;5053641;28;20470;-50
2023/02/10 06:34:41;;;;;;;21.27;10.37;;;;;;;;;;5053838;28;20051;-53
2023/02/10 06:37:07;;;;;;;16.57;12.10;;;;;;;;;;5053858;28;20025;-51
2023/02/10 06:39:33;;;;;;;14.63;11.73;;;;;;;;;;5053492;28;20021;-55
2023/02/10 06:42:00;;;;;;;20.20;12.90;;;;;;;;;;5053644;28;20055;-52
2023/02/10 06:44:26;;;;;;;19.20;14.47;;;;;;;;;;5053909;28;20025;-53
2023/02/10 06:46:52;;;;;;;14.97;12.90;;;;;;;;;;5053629;28;20418;-55
2023/02/10 06:49:18;;;;;;;12.73;11.43;;;;;;;;;;5053938;28;20447;-53
2023/02/10 06:51:44;;;;;;;15.83;12.83;;;;;;;;;;5052237;28;20029;-53
2023/02/10 06:54:10;;;;;;;21.20;16.03;;;;;;;;;;5053513;28;20021;-52
2023/02/10 06:56:36;;;;;;;16.50;14.77;;;;;;;;;;5054084;28;20431;-53
2023/02/10 06:59:02;;;;;;;17.07;14.43;;;;;;;;;;5053208;28;20025;-54
2023/02/10 07:01:28;;;;;;;20.50;13.57;;;;;;;;;;5053215;28;20136;-55
2023/02/10 07:03:54;;;;;;;23.13;11.70;;;;;;;;;;5053752;28;20029;-53
2023/02/10 07:06:20;;;;;;;16.20;12.23;;;;;;;;;;5053263;28;20474;-55
2023/02/10 07:08:46;;;;;;;15.80;13.77;;;;;;;;;;5053163;28;20036;-51
2023/02/10 07:11:12;;;;;;;15.47;13.90;;;;;;;;;;5053538;28;20100;-55
2023/02/10 07:13:38;;;;;;;19.23;13.70;;;;;;;;;;5052930;28;20033;-53
2023/02/10 07:16:04;;;;;;;15.77;13.53;;;;;;;;;;5053710;28;20037;-51
2023/02/10 07:18:30;;;;;;;16.13;12.23;;;;;;;;;;5053229;28;20025;-55
2023/02/10 07:20:56;;;;;;;19.63;13.20;;;;;;;;;;5053373;28;20091;-54
2023/02/10 07:23:22;;;;;;;19.43;14.33;;;;;;;;;;5054061;28;20116;-54
2023/02/10 07:25:48;;;;;;;21.17;14.70;;;;;;;;;;5053656;28;20064;-55
2023/02/10 07:28:14;;;;;;;21.80;14.40;;;;;;;;;;5053766;28;20072;-54
2023/02/10 07:30:40;;;;;;;18.97;14.57;;;;;;;;;;5053048;28;20036;-54
2023/02/10 07:33:06;;;;;;;21.70;14.37;;;;;;;;;;5053051;28;20532;-55
2023/02/10 07:35:32;;;;;;;17.73;15.63;;;;;;;;;;5053879;28;20025;-56
2023/02/10 07:37:57;;;;;;;19.20;14.67;;;;;;;;;;5053891;28;20025;-51
2023/02/10 07:40:27;;;;;;;16.00;13.23;;;;;;;;;;5053649;28;20050;-53
2023/02/10 07:42:53;;;;;;;18.13;12.50;;;;;;;;;;5053989;28;20028;-53
2023/02/10 07:45:19;;;;;;;17.07;13.50;;;;;;;;;;5053753;28;20028;-52
2023/02/10 07:47:45;;;;;;;19.63;15.83;;;;;;;;;;5053062;28;20037;-52
2023/02/10 07:50:10;;;;;;;20.93;14.27;;;;;;;;;;5053394;28;20036;-55
2023/02/10 07:52:37;;;;;;;17.93;12.00;;;;;;;;;;5054957;28;20035;-50
2023/02/10 07:55:04;;;;;;;16.13;14.43;;;;;;;;;;5057313;28;20074;-55
2023/02/10 07:57:30;;;;;;;18.40;16.03;;;;;;;;;;5057166;28;20033;-56
2023/02/10 07:59:56;;;;;;;23.80;19.23;;;;;;;;;;5056721;28;20047;-52
2023/02/10 08:02:22;;;;;;;22.83;16.03;;;;;;;;;;5056362;28;20049;-54
2023/02/10 08:04:48;;;;;;;22.70;17.85;;;;;;;;;;5056843;28;20366;-48
2023/02/10 08:07:14;;;;;;;20.47;15.20;;;;;;;;;;5057026;28;20029;-53
2023/02/10 08:09:40;;;;;;;28.70;16.43;;;;;;;;;;5056256;28;20030;-50
2023/02/10 08:12:06;;;;;;;19.30;15.53;;;;;;;;;;5056453;28;20443;-48
2023/02/10 08:14:32;;;;;;;16.83;14.63;;;;;;;;;;5056166;28;20024;-52
2023/02/10 08:16:58;;;;;;;22.10;13.70;;;;;;;;;;5056202;28;20062;-57
2023/02/10 08:19:24;;;;;;;21.40;15.57;;;;;;;;;;5056861;28;20482;-57
2023/02/10 08:21:50;;;;;;;19.50;16.80;;;;;;;;;;5056519;28;20035;-57
2023/02/10 08:24:16;;;;;;;19.57;16.23;;;;;;;;;;5056025;28;20060;-57
2023/02/10 08:26:42;;;;;;;18.50;15.07;;;;;;;;;;5056044;28;20447;-53
2023/02/10 08:29:09;;;;;;;22.13;17.60;;;;;;;;;;5056007;28;20032;-57
2023/02/10 08:31:35;;;;;;;21.30;16.03;;;;;;;;;;5056071;28;20036;-50
2023/02/10 08:34:01;;;;;;;20.57;18.07;;;;;;;;;;5056257;28;20047;-54
2023/02/10 08:36:27;;;;;;;19.53;17.47;;;;;;;;;;5055663;28;20546;-52
2023/02/10 08:38:53;;;;;;;25.53;16.93;;;;;;;;;;5055866;28;20113;-51
2023/02/10 08:41:19;;;;;;;18.90;17.17;;;;;;;;;;5055523;28;20036;-53
2023/02/10 08:43:45;;;;;;;31.43;17.93;;;;;;;;;;5055399;28;20028;-56
2023/02/10 08:46:12;;;;;;;33.33;16.07;;;;;;;;;;5056046;28;20040;-51
2023/02/10 08:48:38;;;;;;;19.93;16.10;;;;;;;;;;5055662;28;20032;-56
2023/02/10 08:51:08;;;;;;;23.00;17.67;;;;;;;;;;5055541;28;20021;-49
2023/02/10 08:53:33;;;;;;;28.90;20.55;;;;;;;;;;5055664;28;20025;-54
2023/02/10 08:56:01;;;;;;;20.67;15.60;;;;;;;;;;5055591;28;20138;-54
2023/02/10 08:58:27;;;;;;;17.03;15.30;;;;;;;;;;5054914;28;20513;-55
2023/02/10 09:00:53;;;;;;;21.20;16.50;;;;;;;;;;5055008;28;20032;-53
2023/02/10 09:03:19;;;;;;;15.00;13.57;;;;;;;;;;5054772;28;20025;-55
2023/02/10 09:05:45;;;;;;;16.13;14.43;;;;;;;;;;5055169;28;20102;-54
2023/02/10 09:08:12;;;;;;;20.57;14.90;;;;;;;;;;5054508;28;20033;-51
2023/02/10 09:10:40;;;;;;;23.00;16.83;;;;;;;;;;5054582;28;20025;-54
2023/02/10 09:13:08;;;;;;;19.47;15.60;;;;;;;;;;5055329;28;20029;-54
2023/02/10 09:15:34;;;;;;;17.93;14.33;;;;;;;;;;5055043;28;20487;-51
2023/02/10 09:18:00;;;;;;;18.13;15.70;;;;;;;;;;5055316;28;20052;-54
2023/02/10 09:20:26;;;;;;;16.73;12.90;;;;;;;;;;5054941;28;20371;-51
2023/02/10 09:22:52;;;;;;;14.63;13.13;;;;;;;;;;5054894;28;20431;-51
2023/02/10 09:25:18;;;;;;;19.47;16.47;;;;;;;;;;5055310;28;20106;-53
2023/02/10 09:27:44;;;;;;;19.97;15.07;;;;;;;;;;5055152;28;20032;-49
2023/02/10 09:30:10;;;;;;;20.87;14.70;;;;;;;;;;5054841;28;20048;-54
2023/02/10 09:32:36;;;;;;;19.77;14.93;;;;;;;;;;5054327;28;20056;-55
2023/02/10 09:35:02;;;;;;;20.07;17.77;;;;;;;;;;5054814;28;20059;-51
2023/02/10 09:37:28;;;;;;;22.17;14.53;;;;;;;;;;5055177;28;20029;-52
2023/02/10 09:39:54;;;;;;;13.97;12.47;;;;;;;;;;5054625;28;20124;-55
2023/02/10 09:42:38;;;;;;;27.87;15.53;;;;;;;;;;5054744;28;20033;-52
2023/02/10 09:45:13;;;;;;;22.50;14.67;;;;;;;;;;5054898;28;20024;-53
2023/02/10 09:47:46;;;;;;;16.23;14.27;;;;;;;;;;5054557;28;20037;-54
2023/02/10 09:50:14;;;;;;;21.33;14.77;;;;;;;;;;5054597;28;20021;-53
2023/02/10 09:52:59;;;;;;;24.20;15.67;;;;;;;;;;5054520;28;20021;-53
2023/02/10 09:55:28;;;;;;;21.23;17.00;;;;;;;;;;5054463;28;20481;-54
2023/02/10 09:58:00;;;;;;;16.60;13.57;;;;;;;;;;5054338;28;20048;-55
2023/02/10 10:00:26;;;;;;;17.63;13.03;;;;;;;;;;5054648;28;20029;-54
2023/02/10 10:02:54;;;;;;;17.73;14.90;;;;;;;;;;5053868;28;20045;-54
2023/02/10 10:05:24;;;;;;;24.50;15.63;;;;;;;;;;5053747;28;20039;-55
2023/02/10 10:07:53;;;;;;;19.73;16.40;;;;;;;;;;5054262;28;20025;-51
2023/02/10 10:10:32;;;;;;;23.17;16.67;;;;;;;;;;5054212;28;20055;-55
2023/02/10 10:12:58;;;;;;;20.67;16.33;;;;;;;;;;5054542;28;20111;-51
2023/02/10 10:15:27;;;;;;;19.20;16.60;;;;;;;;;;5053865;28;20496;-55
2023/02/10 10:18:00;;;;;;;20.23;16.07;;;;;;;;;;5054281;28;20118;-51
2023/02/10 10:20:40;;;;;;;28.03;18.30;;;;;;;;;;5054499;28;20426;-54
2023/02/10 10:23:16;;;;;;;25.30;18.23;;;;;;;;;;5054068;28;20029;-55
2023/02/10 10:26:00;;;;;;;20.07;16.33;;;;;;;;;;5054007;28;20448;-55
2023/02/10 10:28:42;;;;;;;17.83;15.33;;;;;;;;;;5053860;28;20021;-52
2023/02/10 10:31:14;;;;;;;20.87;15.63;;;;;;;;;;5054351;28;20083;-54
2023/02/10 10:33:44;;;;;;;25.77;17.03;;;;;;;;;;5054248;28;20033;-53
2023/02/10 10:36:22;;;;;;;19.73;15.10;;;;;;;;;;5054247;28;20055;-51
2023/02/10 10:38:53;;;;;;;16.03;13.47;;;;;;;;;;5053724;28;20478;-54
2023/02/10 10:41:19;;;;;;;;;;;;;;;;;;5054622;28;20464;-55
2023/02/10 10:43:46;;;;;;;21.23;16.00;;;;;;;;;;5053697;28;19996;-55
2023/02/10 10:46:19;;;;;;;18.57;14.67;;;;;;;;;;5054309;28;20061;-55
2023/02/10 10:48:45;;;;;;;21.87;15.87;;;;;;;;;;5054269;28;20167;-55
2023/02/10 10:51:12;;;;;;;26.70;16.17;;;;;;;;;;5053878;28;20025;-54
2023/02/10 10:53:40;;;;;;;22.53;15.40;;;;;;;;;;5053593;28;20033;-53
2023/02/10 10:56:08;;;;;;;19.37;15.67;;;;;;;;;;5054410;28;20028;-54
2023/02/10 10:58:38;;;;;;;24.13;16.70;;;;;;;;;;5054048;28;20134;-53
2023/02/10 11:01:05;;;;;;;21.83;15.73;;;;;;;;;;5053374;28;20033;-55
2023/02/10 11:03:31;;;;;;;18.17;15.07;;;;;;;;;;5053408;28;20024;-55
2023/02/10 11:06:00;;;;;;;19.70;15.03;;;;;;;;;;5053868;28;20033;-55
2023/02/10 11:08:27;;;;;;;19.00;14.33;;;;;;;;;;5054265;28;20074;-54
2023/02/10 11:10:58;;;;;;;18.47;13.77;;;;;;;;;;5053725;28;20083;-55
2023/02/10 11:13:26;;;;;;;24.03;16.73;;;;;;;;;;5053500;28;20360;-55
2023/02/10 11:16:03;;;;;;;22.60;14.50;;;;;;;;;;5054042;28;20037;-54
2023/02/10 11:18:30;;;;;;;21.27;15.10;;;;;;;;;;5053712;28;20025;-54
2023/02/10 11:21:06;;;;;;;20.05;14.48;;;;;;;;;;5053376;28;20117;-54
2023/02/10 11:23:32;;;;;;;16.20;12.68;;;;;;;;;;5053664;28;20017;-53
2023/02/10 11:26:02;;;;;;;18.45;12.77;;;;;;;;;;5053483;28;20482;-50
2023/02/10 11:28:29;;;;;;;19.48;12.85;;;;;;;;;;5056715;28;20028;-55
2023/02/10 11:30:58;;;;;;;15.77;13.15;;;;;;;;;;5057157;28;20053;-55
2023/02/10 11:33:25;;;;;;;17.85;13.20;;;;;;;;;;5057156;28;20414;-55
2023/02/10 11:35:53;;;;;;;18.80;13.90;;;;;;;;;;5057505;28;20036;-55
2023/02/10 11:38:24;;;;;;;16.88;13.43;;;;;;;;;;5057120;28;20352;-54
2023/02/10 11:40:52;;;;;;;17.33;13.55;;;;;;;;;;5057474;28;20082;-55
2023/02/10 11:43:18;;;;;;;15.25;11.77;;;;;;;;;;5057438;28;20493;-56
2023/02/10 11:45:52;;;;;;;19.00;13.20;;;;;;;;;;5057403;28;20406;-56
2023/02/10 11:48:19;;;;;;;17.80;12.90;;;;;;;;;;5057635;28;20025;-55
2023/02/10 11:50:45;;;;;;;19.23;14.43;;;;;;;;;;5057076;28;20032;-53
2023/02/10 11:53:25;;;;;;;23.00;13.32;;;;;;;;;;5056326;28;20347;-53
2023/02/10 11:55:58;;;;;;;14.27;10.93;;;;;;;;;;5057060;28;20025;-54
2023/02/10 11:58:59;;;;;;;20.73;14.60;;;;;;;;;;5057177;28;20191;-54
2023/02/10 12:01:35;;;;;;;17.17;12.45;;;;;;;;;;5057040;28;20049;-53
2023/02/10 12:04:15;;;;;;;17.08;13.45;;;;;;;;;;5057257;28;20086;-56
2023/02/10 12:06:52;;;;;;;16.08;12.95;;;;;;;;;;5056555;28;20078;-54
2023/02/10 12:09:41;;;;;;;22.90;14.60;;;;;;;;;;5056570;28;20108;-55
2023/02/10 12:12:12;;;;;;;17.45;13.45;;;;;;;;;;5056758;28;20025;-56
2023/02/10 12:14:58;;;;;;;18.98;12.73;;;;;;;;;;5056495;28;20032;-53
2023/02/10 12:17:29;;;;;;;16.90;12.90;;;;;;;;;;5056169;28;20033;-53
2023/02/10 12:19:57;;;;;;;;;;;;;;;;;;5056276;28;20478;-54
2023/02/10 12:22:41;;;;;;;16.50;14.07;;;;;;;;;;5056078;28;19999;-54
2023/02/10 12:25:10;;;;;;;20.25;13.55;;;;;;;;;;5056130;28;20082;-55
2023/02/10 12:27:39;;;;;;;21.45;12.05;;;;;;;;;;5056271;28;20029;-53
2023/02/10 12:30:15;;;;;;;22.20;15.70;;;;;;;;;;5056307;28;20378;-54
2023/02/10 12:32:47;;;;;;;17.50;15.70;;;;;;;;;;5056579;28;20344;-56
2023/02/10 12:35:26;;;;;;;16.10;12.80;;;;;;;;;;5056212;28;20083;-55
2023/02/10 12:38:11;;;;;;;18.20;14.75;;;;;;;;;;5055636;28;20082;-54
2023/02/10 12:40:42;;;;;;;26.35;16.10;;;;;;;;;;5055889;28;20078;-54
2023/02/10 12:43:11;;;;;;;20.25;14.90;;;;;;;;;;5055794;28;20533;-55
2023/02/10 12:45:56;;;;;;;22.33;14.95;;;;;;;;;;5055915;28;20029;-55
2023/02/10 12:48:34;;;;;;;22.27;15.05;;;;;;;;;;5055581;28;20079;-54
2023/02/10 12:51:03;;;;;;;19.80;11.85;;;;;;;;;;5055592;28;20021;-51
2023/02/10 12:53:31;;;;;;;19.88;11.85;;;;;;;;;;5055240;28;20068;-52
2023/02/10 12:56:01;;;;;;;18.60;13.77;;;;;;;;;;5055859;28;20029;-54
2023/02/10 12:58:40;;;;;;;19.75;13.80;;;;;;;;;;5055707;28;20040;-56
2023/02/10 13:01:09;;;;;;;20.52;13.45;;;;;;;;;;5055452;28;20029;-54
2023/02/10 13:03:37;;;;;;;26.63;15.88;;;;;;;;;;5055029;28;20031;-55
2023/02/10 13:06:18;;;;;;;19.40;13.73;;;;;;;;;;5054956;28;20430;-55
2023/02/10 13:08:49;;;;;;;16.25;12.15;;;;;;;;;;5055151;28;20087;-54
2023/02/10 13:11:27;;;;;;;18.55;13.18;;;;;;;;;;5055544;28;20071;-55
2023/02/10 13:13:54;;;;;;;18.30;13.77;;;;;;;;;;5055369;28;20053;-57
2023/02/10 13:16:23;;;;;;;20.35;14.38;;;;;;;;;;5055022;28;20455;-57
2023/02/10 13:19:06;;;;;;;21.95;14.23;;;;;;;;;;5055065;28;20024;-53
2023/02/10 13:21:38;;;;;;;15.80;13.00;;;;;;;;;;5054894;28;20052;-56
2023/02/10 13:24:09;;;;;;;19.77;15.35;;;;;;;;;;5055353;28;20029;-52
2023/02/10 13:26:40;;;;;;;16.23;13.23;;;;;;;;;;5055293;28;20110;-54
2023/02/10 13:29:18;;;;;;;16.50;13.05;;;;;;;;;;5055410;28;20036;-56
2023/02/10 13:31:47;;;;;;;19.35;13.05;;;;;;;;;;5055336;28;20032;-55
2023/02/10 13:34:28;;;;;;;20.23;14.02;;;;;;;;;;5054749;28;20025;-54
2023/02/10 13:36:56;;;;;;;14.10;10.95;;;;;;;;;;5055069;28;20033;-55
2023/02/10 13:39:25;;;;;;;23.45;13.43;;;;;;;;;;5054555;28;20029;-53
2023/02/10 13:42:04;;;;;;;22.13;14.02;;;;;;;;;;5054954;28;20460;-54
2023/02/10 13:44:31;;;;;;;21.63;12.85;;;;;;;;;;5054058;28;20070;-54
2023/02/10 13:47:09;;;;;;;14.20;11.85;;;;;;;;;;5053727;28;20312;-54
2023/02/10 13:50:07;;;;;;;18.63;12.23;;;;;;;;;;5053802;28;20356;-55
2023/02/10 13:52:34;;;;;;;15.50;11.40;;;;;;;;;;5042276;28;20116;-54
2023/02/10 13:55:09;;;;;;;19.60;12.07;;;;;;;;;;5054672;28;20025;-55
2023/02/10 13:57:39;;;;;;;23.60;12.48;;;;;;;;;;5054644;28;20059;-55
2023/02/10 14:00:11;;;;;;;17.83;12.55;;;;;;;;;;5054199;28;20032;-57
2023/02/10 14:02:37;;;;;;;19.58;12.38;;;;;;;;;;5054435;28;20140;-53
2023/02/10 14:05:04;;;;;;;15.27;10.20;;;;;;;;;;5054617;28;20056;-55
2023/02/10 14:07:35;;;;;;;18.75;13.27;;;;;;;;;;5053896;28;20025;-54
2023/02/10 14:10:06;;;;;;;16.77;12.15;;;;;;;;;;5053921;28;20112;-53
2023/02/10 14:12:33;;;;;;;14.98;10.75;;;;;;;;;;5054060;28;20506;-55
2023/02/10 14:15:18;;;;;;;13.30;10.70;;;;;;;;;;5054403;28;20390;-56
2023/02/10 14:17:54;;;;;;;18.27;11.48;;;;;;;;;;5054589;28;20032;-54
2023/02/10 14:20:24;;;;;;;19.65;11.85;;;;;;;;;;5054316;28;20108;-55
2023/02/10 14:22:50;;;;;;;17.58;12.27;;;;;;;;;;5054035;28;20100;-52
2023/02/10 14:25:29;;;;;;;19.00;11.25;;;;;;;;;;5054252;28;20033;-51
2023/02/10 14:27:55;;;;;;;16.50;11.50;;;;;;;;;;5054062;28;20025;-55